sensor_id;sensor_type;location;lat;lon;timestamp;P1;durP1;ratioP1;P2;durP2;ratioP2
51006;SDS011;37034;47.886;-3.904;2023-11-21T00:00:12;14.65;;;2.78;;
51006;SDS011;37034;47.886;-3.904;2023-11-21T00:02:40;19.50;;;2.92;;
51006;SDS011;37034;47.886;-3.904;2023-11-21T00:05:07;15.70;;;2.95;;
51006;SDS011;37034;47.886;-3.904;2023-11-21T00:07:34;14.23;;;2.40;;
51006;SDS011;37034;47.886;-3.904;2023-11-21T00:10:01;24.23;;;2.55;;
51006;SDS011;37034;47.886;-3.904;2023-11-21T00:14:54;18.02;;;2.20;;
51006;SDS011;37034;47.886;-3.904;2023-11-21T00:17:20;16.10;;;1.70;;
51006;SDS011;37034;47.886;-3.904;2023-11-21T00:19:46;14.33;;;2.77;;
51006;SDS011;37034;47.886;-3.904;2023-11-21T00:22:11;20.03;;;2.23;;
51006;SDS011;37034;47.886;-3.904;2023-11-21T00:24:37;18.10;;;2.20;;
51006;SDS011;37034;47.886;-3.904;2023-11-21T00:27:03;14.93;;;1.83;;
51006;SDS011;37034;47.886;-3.904;2023-11-21T00:29:28;13.65;;;2.50;;
51006;SDS011;37034;47.886;-3.904;2023-11-21T00:31:54;14.10;;;1.50;;
51006;SDS011;37034;47.886;-3.904;2023-11-21T00:34:20;15.67;;;2.43;;
51006;SDS011;37034;47.886;-3.904;2023-11-21T00:36:45;16.38;;;1.90;;
51006;SDS011;37034;47.886;-3.904;2023-11-21T00:39:11;12.90;;;1.63;;
51006;SDS011;37034;47.886;-3.904;2023-11-21T00:41:37;16.03;;;2.20;;
51006;SDS011;37034;47.886;-3.904;2023-11-21T00:44:03;9.93;;;1.40;;
51006;SDS011;37034;47.886;-3.904;2023-11-21T00:46:29;17.52;;;2.03;;
51006;SDS011;37034;47.886;-3.904;2023-11-21T00:48:54;18.13;;;2.70;;
51006;SDS011;37034;47.886;-3.904;2023-11-21T00:51:21;16.85;;;2.03;;
51006;SDS011;37034;47.886;-3.904;2023-11-21T00:53:47;18.33;;;2.30;;
51006;SDS011;37034;47.886;-3.904;2023-11-21T00:56:13;13.32;;;1.70;;
51006;SDS011;37034;47.886;-3.904;2023-11-21T00:58:39;13.80;;;1.95;;
51006;SDS011;37034;47.886;-3.904;2023-11-21T01:01:11;14.27;;;1.90;;
51006;SDS011;37034;47.886;-3.904;2023-11-21T01:03:37;12.07;;;1.40;;
51006;SDS011;37034;47.886;-3.904;2023-11-21T01:06:03;8.90;;;1.70;;
51006;SDS011;37034;47.886;-3.904;2023-11-21T01:08:32;12.27;;;2.13;;
51006;SDS011;37034;47.886;-3.904;2023-11-21T01:10:58;9.68;;;1.73;;
51006;SDS011;37034;47.886;-3.904;2023-11-21T01:13:24;18.88;;;1.85;;
51006;SDS011;37034;47.886;-3.904;2023-11-21T01:15:54;15.43;;;1.45;;
51006;SDS011;37034;47.886;-3.904;2023-11-21T01:18:20;16.52;;;1.92;;
51006;SDS011;37034;47.886;-3.904;2023-11-21T01:20:46;11.15;;;1.27;;
51006;SDS011;37034;47.886;-3.904;2023-11-21T01:23:12;13.63;;;1.80;;
51006;SDS011;37034;47.886;-3.904;2023-11-21T01:25:38;13.88;;;1.48;;
51006;SDS011;37034;47.886;-3.904;2023-11-21T01:28:05;18.05;;;1.50;;
51006;SDS011;37034;47.886;-3.904;2023-11-21T01:30:30;11.93;;;2.00;;
51006;SDS011;37034;47.886;-3.904;2023-11-21T01:32:57;15.57;;;1.70;;
51006;SDS011;37034;47.886;-3.904;2023-11-21T01:35:23;16.13;;;2.25;;
51006;SDS011;37034;47.886;-3.904;2023-11-21T01:37:49;13.43;;;1.90;;
51006;SDS011;37034;47.886;-3.904;2023-11-21T01:40:14;13.63;;;2.17;;
51006;SDS011;37034;47.886;-3.904;2023-11-21T01:42:40;19.03;;;2.30;;
51006;SDS011;37034;47.886;-3.904;2023-11-21T01:45:08;14.68;;;1.85;;
51006;SDS011;37034;47.886;-3.904;2023-11-21T01:47:35;17.55;;;1.70;;
51006;SDS011;37034;47.886;-3.904;2023-11-21T01:50:01;17.77;;;2.03;;
51006;SDS011;37034;47.886;-3.904;2023-11-21T01:52:29;15.88;;;1.80;;
51006;SDS011;37034;47.886;-3.904;2023-11-21T01:54:56;16.42;;;1.90;;
51006;SDS011;37034;47.886;-3.904;2023-11-21T01:57:24;16.45;;;2.03;;
51006;SDS011;37034;47.886;-3.904;2023-11-21T01:59:50;14.52;;;1.40;;
51006;SDS011;37034;47.886;-3.904;2023-11-21T02:02:19;11.73;;;1.67;;
51006;SDS011;37034;47.886;-3.904;2023-11-21T02:04:45;15.43;;;1.90;;
51006;SDS011;37034;47.886;-3.904;2023-11-21T02:07:10;18.88;;;2.22;;
51006;SDS011;37034;47.886;-3.904;2023-11-21T02:09:36;13.73;;;1.60;;
51006;SDS011;37034;47.886;-3.904;2023-11-21T02:12:07;12.60;;;1.40;;
51006;SDS011;37034;47.886;-3.904;2023-11-21T02:14:36;14.35;;;1.42;;
51006;SDS011;37034;47.886;-3.904;2023-11-21T02:17:02;14.93;;;2.15;;
51006;SDS011;37034;47.886;-3.904;2023-11-21T02:19:28;14.23;;;1.52;;
51006;SDS011;37034;47.886;-3.904;2023-11-21T02:21:56;15.32;;;2.25;;
51006;SDS011;37034;47.886;-3.904;2023-11-21T02:24:31;14.50;;;2.65;;
51006;SDS011;37034;47.886;-3.904;2023-11-21T02:26:57;13.35;;;1.70;;
51006;SDS011;37034;47.886;-3.904;2023-11-21T02:29:23;24.95;;;2.40;;
51006;SDS011;37034;47.886;-3.904;2023-11-21T02:31:55;18.77;;;2.53;;
51006;SDS011;37034;47.886;-3.904;2023-11-21T02:34:21;13.43;;;1.90;;
51006;SDS011;37034;47.886;-3.904;2023-11-21T02:36:48;23.88;;;2.30;;
51006;SDS011;37034;47.886;-3.904;2023-11-21T02:39:16;22.58;;;2.15;;
51006;SDS011;37034;47.886;-3.904;2023-11-21T02:41:43;22.05;;;3.05;;
51006;SDS011;37034;47.886;-3.904;2023-11-21T02:46:35;14.35;;;1.80;;
51006;SDS011;37034;47.886;-3.904;2023-11-21T02:49:05;14.95;;;1.83;;
51006;SDS011;37034;47.886;-3.904;2023-11-21T02:51:31;15.45;;;1.83;;
51006;SDS011;37034;47.886;-3.904;2023-11-21T02:56:26;14.35;;;1.85;;
51006;SDS011;37034;47.886;-3.904;2023-11-21T02:58:54;18.20;;;2.35;;
51006;SDS011;37034;47.886;-3.904;2023-11-21T03:01:21;14.48;;;2.17;;
51006;SDS011;37034;47.886;-3.904;2023-11-21T03:03:48;18.45;;;1.80;;
51006;SDS011;37034;47.886;-3.904;2023-11-21T03:06:16;16.95;;;1.98;;
51006;SDS011;37034;47.886;-3.904;2023-11-21T03:08:42;19.80;;;2.53;;
51006;SDS011;37034;47.886;-3.904;2023-11-21T03:11:08;15.98;;;2.65;;
51006;SDS011;37034;47.886;-3.904;2023-11-21T03:13:34;12.00;;;1.47;;
51006;SDS011;37034;47.886;-3.904;2023-11-21T03:15:59;17.97;;;2.40;;
51006;SDS011;37034;47.886;-3.904;2023-11-21T03:18:25;20.27;;;2.53;;
51006;SDS011;37034;47.886;-3.904;2023-11-21T03:20:52;15.70;;;1.33;;
51006;SDS011;37034;47.886;-3.904;2023-11-21T03:23:18;13.75;;;1.80;;
51006;SDS011;37034;47.886;-3.904;2023-11-21T03:25:44;12.55;;;1.67;;
51006;SDS011;37034;47.886;-3.904;2023-11-21T03:28:09;12.50;;;1.63;;
51006;SDS011;37034;47.886;-3.904;2023-11-21T03:30:35;12.17;;;1.60;;
51006;SDS011;37034;47.886;-3.904;2023-11-21T03:33:00;14.40;;;2.47;;
51006;SDS011;37034;47.886;-3.904;2023-11-21T03:35:26;14.63;;;1.63;;
51006;SDS011;37034;47.886;-3.904;2023-11-21T03:37:53;12.65;;;1.75;;
51006;SDS011;37034;47.886;-3.904;2023-11-21T03:40:19;17.52;;;1.40;;
51006;SDS011;37034;47.886;-3.904;2023-11-21T03:42:46;9.82;;;1.20;;
51006;SDS011;37034;47.886;-3.904;2023-11-21T03:45:12;12.35;;;1.65;;
51006;SDS011;37034;47.886;-3.904;2023-11-21T03:47:38;13.57;;;1.25;;
51006;SDS011;37034;47.886;-3.904;2023-11-21T03:50:04;14.43;;;1.63;;
51006;SDS011;37034;47.886;-3.904;2023-11-21T03:52:30;8.57;;;1.45;;
51006;SDS011;37034;47.886;-3.904;2023-11-21T03:54:56;11.37;;;1.57;;
51006;SDS011;37034;47.886;-3.904;2023-11-21T03:57:21;14.90;;;1.27;;
51006;SDS011;37034;47.886;-3.904;2023-11-21T03:59:47;9.53;;;1.30;;
51006;SDS011;37034;47.886;-3.904;2023-11-21T04:02:13;10.50;;;1.23;;
51006;SDS011;37034;47.886;-3.904;2023-11-21T04:04:38;10.03;;;1.20;;
51006;SDS011;37034;47.886;-3.904;2023-11-21T04:07:04;13.40;;;1.30;;
51006;SDS011;37034;47.886;-3.904;2023-11-21T04:09:30;12.88;;;1.63;;
51006;SDS011;37034;47.886;-3.904;2023-11-21T04:11:56;14.60;;;1.53;;
51006;SDS011;37034;47.886;-3.904;2023-11-21T04:14:22;8.73;;;1.53;;
51006;SDS011;37034;47.886;-3.904;2023-11-21T04:16:48;12.82;;;1.80;;
51006;SDS011;37034;47.886;-3.904;2023-11-21T04:19:13;15.90;;;2.08;;
51006;SDS011;37034;47.886;-3.904;2023-11-21T04:21:40;10.52;;;1.50;;
51006;SDS011;37034;47.886;-3.904;2023-11-21T04:24:06;9.43;;;1.27;;
51006;SDS011;37034;47.886;-3.904;2023-11-21T04:26:32;12.77;;;1.52;;
51006;SDS011;37034;47.886;-3.904;2023-11-21T04:28:58;12.63;;;1.88;;
51006;SDS011;37034;47.886;-3.904;2023-11-21T04:31:24;15.70;;;2.33;;
51006;SDS011;37034;47.886;-3.904;2023-11-21T04:33:49;13.93;;;1.67;;
51006;SDS011;37034;47.886;-3.904;2023-11-21T04:36:15;12.83;;;1.37;;
51006;SDS011;37034;47.886;-3.904;2023-11-21T04:38:41;11.47;;;1.43;;
51006;SDS011;37034;47.886;-3.904;2023-11-21T04:41:07;15.43;;;1.47;;
51006;SDS011;37034;47.886;-3.904;2023-11-21T04:43:33;8.40;;;1.63;;
51006;SDS011;37034;47.886;-3.904;2023-11-21T04:45:59;13.07;;;2.07;;
51006;SDS011;37034;47.886;-3.904;2023-11-21T04:48:25;7.07;;;0.80;;
51006;SDS011;37034;47.886;-3.904;2023-11-21T04:50:50;8.93;;;1.13;;
51006;SDS011;37034;47.886;-3.904;2023-11-21T04:53:16;9.38;;;1.40;;
51006;SDS011;37034;47.886;-3.904;2023-11-21T04:55:42;7.07;;;1.20;;
51006;SDS011;37034;47.886;-3.904;2023-11-21T04:58:09;19.27;;;2.42;;
51006;SDS011;37034;47.886;-3.904;2023-11-21T05:00:36;10.23;;;1.15;;
51006;SDS011;37034;47.886;-3.904;2023-11-21T05:03:02;10.13;;;1.17;;
51006;SDS011;37034;47.886;-3.904;2023-11-21T05:05:29;11.90;;;1.92;;
51006;SDS011;37034;47.886;-3.904;2023-11-21T05:07:58;11.45;;;1.10;;
51006;SDS011;37034;47.886;-3.904;2023-11-21T05:10:24;6.03;;;1.10;;
51006;SDS011;37034;47.886;-3.904;2023-11-21T05:12:50;9.37;;;1.17;;
51006;SDS011;37034;47.886;-3.904;2023-11-21T05:15:16;11.03;;;1.07;;
51006;SDS011;37034;47.886;-3.904;2023-11-21T05:17:45;7.72;;;1.00;;
51006;SDS011;37034;47.886;-3.904;2023-11-21T05:20:13;8.48;;;0.75;;
51006;SDS011;37034;47.886;-3.904;2023-11-21T05:22:42;16.67;;;1.40;;
51006;SDS011;37034;47.886;-3.904;2023-11-21T05:25:08;14.00;;;1.70;;
51006;SDS011;37034;47.886;-3.904;2023-11-21T05:27:34;11.52;;;1.45;;
51006;SDS011;37034;47.886;-3.904;2023-11-21T05:30:04;12.23;;;1.42;;
51006;SDS011;37034;47.886;-3.904;2023-11-21T05:32:31;8.38;;;1.05;;
51006;SDS011;37034;47.886;-3.904;2023-11-21T05:34:57;15.30;;;1.33;;
51006;SDS011;37034;47.886;-3.904;2023-11-21T05:37:24;8.32;;;1.40;;
51006;SDS011;37034;47.886;-3.904;2023-11-21T05:39:51;10.40;;;1.42;;
51006;SDS011;37034;47.886;-3.904;2023-11-21T05:42:18;11.20;;;1.40;;
51006;SDS011;37034;47.886;-3.904;2023-11-21T05:44:43;10.50;;;1.43;;
51006;SDS011;37034;47.886;-3.904;2023-11-21T05:47:09;8.93;;;1.27;;
51006;SDS011;37034;47.886;-3.904;2023-11-21T05:49:35;16.40;;;2.00;;
51006;SDS011;37034;47.886;-3.904;2023-11-21T05:52:02;7.95;;;1.23;;
51006;SDS011;37034;47.886;-3.904;2023-11-21T05:54:27;13.60;;;1.73;;
51006;SDS011;37034;47.886;-3.904;2023-11-21T05:56:53;16.53;;;2.40;;
51006;SDS011;37034;47.886;-3.904;2023-11-21T05:59:19;13.07;;;1.53;;
51006;SDS011;37034;47.886;-3.904;2023-11-21T06:01:45;14.10;;;1.90;;
51006;SDS011;37034;47.886;-3.904;2023-11-21T06:04:11;18.40;;;2.05;;
51006;SDS011;37034;47.886;-3.904;2023-11-21T06:06:37;14.45;;;1.98;;
51006;SDS011;37034;47.886;-3.904;2023-11-21T06:09:04;13.95;;;2.25;;
51006;SDS011;37034;47.886;-3.904;2023-11-21T06:11:31;13.60;;;1.88;;
51006;SDS011;37034;47.886;-3.904;2023-11-21T06:13:57;29.08;;;2.97;;
51006;SDS011;37034;47.886;-3.904;2023-11-21T06:16:23;23.17;;;2.20;;
51006;SDS011;37034;47.886;-3.904;2023-11-21T06:18:49;17.73;;;2.92;;
51006;SDS011;37034;47.886;-3.904;2023-11-21T06:21:15;25.08;;;2.45;;
51006;SDS011;37034;47.886;-3.904;2023-11-21T06:23:42;16.67;;;2.10;;
51006;SDS011;37034;47.886;-3.904;2023-11-21T06:26:07;19.95;;;2.30;;
51006;SDS011;37034;47.886;-3.904;2023-11-21T06:28:34;16.48;;;2.20;;
51006;SDS011;37034;47.886;-3.904;2023-11-21T06:31:01;17.40;;;1.88;;
51006;SDS011;37034;47.886;-3.904;2023-11-21T06:33:30;19.73;;;2.70;;
51006;SDS011;37034;47.886;-3.904;2023-11-21T06:38:22;20.42;;;2.28;;
51006;SDS011;37034;47.886;-3.904;2023-11-21T06:40:48;8.10;;;2.30;;
51006;SDS011;37034;47.886;-3.904;2023-11-21T06:43:13;16.23;;;3.00;;
51006;SDS011;37034;47.886;-3.904;2023-11-21T06:45:39;20.65;;;2.42;;
51006;SDS011;37034;47.886;-3.904;2023-11-21T06:48:05;23.27;;;3.63;;
51006;SDS011;37034;47.886;-3.904;2023-11-21T06:50:31;18.57;;;2.23;;
51006;SDS011;37034;47.886;-3.904;2023-11-21T06:52:56;17.63;;;2.43;;
51006;SDS011;37034;47.886;-3.904;2023-11-21T06:55:22;17.63;;;2.03;;
51006;SDS011;37034;47.886;-3.904;2023-11-21T06:57:48;18.93;;;2.53;;
51006;SDS011;37034;47.886;-3.904;2023-11-21T07:00:15;19.37;;;2.53;;
51006;SDS011;37034;47.886;-3.904;2023-11-21T07:02:42;18.08;;;2.85;;
51006;SDS011;37034;47.886;-3.904;2023-11-21T07:05:08;13.27;;;2.28;;
51006;SDS011;37034;47.886;-3.904;2023-11-21T07:07:34;23.42;;;3.33;;
51006;SDS011;37034;47.886;-3.904;2023-11-21T07:10:02;14.02;;;2.35;;
51006;SDS011;37034;47.886;-3.904;2023-11-21T07:12:29;18.00;;;2.53;;
51006;SDS011;37034;47.886;-3.904;2023-11-21T07:14:56;18.52;;;2.72;;
51006;SDS011;37034;47.886;-3.904;2023-11-21T07:17:22;21.15;;;2.30;;
51006;SDS011;37034;47.886;-3.904;2023-11-21T07:19:48;25.23;;;3.05;;
51006;SDS011;37034;47.886;-3.904;2023-11-21T07:22:15;22.95;;;3.05;;
51006;SDS011;37034;47.886;-3.904;2023-11-21T07:24:47;25.17;;;3.00;;
51006;SDS011;37034;47.886;-3.904;2023-11-21T07:27:16;16.52;;;2.75;;
51006;SDS011;37034;47.886;-3.904;2023-11-21T07:29:42;19.88;;;2.45;;
51006;SDS011;37034;47.886;-3.904;2023-11-21T07:32:08;23.03;;;3.53;;
51006;SDS011;37034;47.886;-3.904;2023-11-21T07:34:34;15.05;;;2.55;;
51006;SDS011;37034;47.886;-3.904;2023-11-21T07:37:01;22.92;;;2.22;;
51006;SDS011;37034;47.886;-3.904;2023-11-21T07:39:27;24.60;;;3.33;;
51006;SDS011;37034;47.886;-3.904;2023-11-21T07:41:53;18.35;;;2.13;;
51006;SDS011;37034;47.886;-3.904;2023-11-21T07:44:19;17.33;;;2.13;;
51006;SDS011;37034;47.886;-3.904;2023-11-21T07:46:45;21.90;;;3.20;;
51006;SDS011;37034;47.886;-3.904;2023-11-21T07:49:11;19.65;;;2.55;;
51006;SDS011;37034;47.886;-3.904;2023-11-21T07:51:48;20.40;;;2.83;;
51006;SDS011;37034;47.886;-3.904;2023-11-21T07:54:13;16.60;;;2.10;;
51006;SDS011;37034;47.886;-3.904;2023-11-21T07:56:40;16.15;;;2.25;;
51006;SDS011;37034;47.886;-3.904;2023-11-21T07:59:07;18.70;;;2.58;;
51006;SDS011;37034;47.886;-3.904;2023-11-21T08:01:33;16.70;;;2.63;;
51006;SDS011;37034;47.886;-3.904;2023-11-21T08:03:59;21.45;;;2.50;;
51006;SDS011;37034;47.886;-3.904;2023-11-21T08:06:28;17.15;;;2.30;;
51006;SDS011;37034;47.886;-3.904;2023-11-21T08:08:55;24.52;;;2.63;;
51006;SDS011;37034;47.886;-3.904;2023-11-21T08:11:21;17.33;;;2.53;;
51006;SDS011;37034;47.886;-3.904;2023-11-21T08:13:47;15.37;;;2.50;;
51006;SDS011;37034;47.886;-3.904;2023-11-21T08:16:13;22.33;;;2.50;;
51006;SDS011;37034;47.886;-3.904;2023-11-21T08:18:39;19.37;;;2.93;;
51006;SDS011;37034;47.886;-3.904;2023-11-21T08:21:06;20.55;;;2.35;;
51006;SDS011;37034;47.886;-3.904;2023-11-21T08:25:59;23.27;;;3.45;;
51006;SDS011;37034;47.886;-3.904;2023-11-21T08:28:25;24.92;;;2.65;;
51006;SDS011;37034;47.886;-3.904;2023-11-21T08:30:53;20.50;;;3.20;;
51006;SDS011;37034;47.886;-3.904;2023-11-21T08:33:22;22.48;;;2.67;;
51006;SDS011;37034;47.886;-3.904;2023-11-21T08:35:48;28.60;;;3.90;;
51006;SDS011;37034;47.886;-3.904;2023-11-21T08:38:13;23.02;;;2.83;;
51006;SDS011;37034;47.886;-3.904;2023-11-21T08:40:39;19.07;;;3.07;;
51006;SDS011;37034;47.886;-3.904;2023-11-21T08:43:05;25.97;;;3.53;;
51006;SDS011;37034;47.886;-3.904;2023-11-21T08:45:32;24.60;;;3.55;;
51006;SDS011;37034;47.886;-3.904;2023-11-21T08:47:59;15.10;;;2.47;;
51006;SDS011;37034;47.886;-3.904;2023-11-21T08:50:26;18.75;;;2.33;;
51006;SDS011;37034;47.886;-3.904;2023-11-21T08:52:51;26.53;;;3.43;;
51006;SDS011;37034;47.886;-3.904;2023-11-21T08:55:17;17.60;;;2.53;;
51006;SDS011;37034;47.886;-3.904;2023-11-21T08:57:45;22.17;;;3.45;;
51006;SDS011;37034;47.886;-3.904;2023-11-21T09:00:13;18.05;;;2.97;;
51006;SDS011;37034;47.886;-3.904;2023-11-21T09:02:41;18.80;;;2.97;;
51006;SDS011;37034;47.886;-3.904;2023-11-21T09:05:08;19.70;;;2.78;;
51006;SDS011;37034;47.886;-3.904;2023-11-21T09:07:39;17.23;;;3.25;;
51006;SDS011;37034;47.886;-3.904;2023-11-21T09:10:06;18.48;;;3.03;;
51006;SDS011;37034;47.886;-3.904;2023-11-21T09:12:32;17.95;;;2.88;;
51006;SDS011;37034;47.886;-3.904;2023-11-21T09:15:00;18.38;;;2.80;;
51006;SDS011;37034;47.886;-3.904;2023-11-21T09:17:30;19.83;;;3.88;;
51006;SDS011;37034;47.886;-3.904;2023-11-21T09:19:56;22.27;;;3.03;;
51006;SDS011;37034;47.886;-3.904;2023-11-21T09:22:22;23.10;;;3.63;;
51006;SDS011;37034;47.886;-3.904;2023-11-21T09:24:50;21.33;;;2.95;;
51006;SDS011;37034;47.886;-3.904;2023-11-21T09:27:18;18.92;;;2.97;;
51006;SDS011;37034;47.886;-3.904;2023-11-21T09:29:46;23.63;;;3.22;;
51006;SDS011;37034;47.886;-3.904;2023-11-21T09:32:12;16.23;;;3.15;;
51006;SDS011;37034;47.886;-3.904;2023-11-21T09:34:41;21.30;;;3.17;;
51006;SDS011;37034;47.886;-3.904;2023-11-21T09:37:06;23.93;;;3.90;;
51006;SDS011;37034;47.886;-3.904;2023-11-21T09:39:33;29.25;;;3.78;;
51006;SDS011;37034;47.886;-3.904;2023-11-21T09:42:07;20.52;;;2.85;;
51006;SDS011;37034;47.886;-3.904;2023-11-21T09:44:36;21.05;;;3.17;;
51006;SDS011;37034;47.886;-3.904;2023-11-21T09:47:29;19.98;;;2.80;;
51006;SDS011;37034;47.886;-3.904;2023-11-21T09:49:56;26.77;;;2.77;;
51006;SDS011;37034;47.886;-3.904;2023-11-21T09:52:26;22.90;;;3.67;;
51006;SDS011;37034;47.886;-3.904;2023-11-21T09:57:21;26.70;;;3.28;;
51006;SDS011;37034;47.886;-3.904;2023-11-21T09:59:55;24.83;;;3.50;;
51006;SDS011;37034;47.886;-3.904;2023-11-21T10:02:31;21.98;;;2.70;;
51006;SDS011;37034;47.886;-3.904;2023-11-21T10:05:01;25.08;;;3.75;;
51006;SDS011;37034;47.886;-3.904;2023-11-21T10:07:28;22.40;;;2.63;;
51006;SDS011;37034;47.886;-3.904;2023-11-21T10:09:56;20.23;;;2.80;;
51006;SDS011;37034;47.886;-3.904;2023-11-21T10:12:24;17.13;;;2.00;;
51006;SDS011;37034;47.886;-3.904;2023-11-21T10:14:51;21.90;;;3.10;;
51006;SDS011;37034;47.886;-3.904;2023-11-21T10:17:19;22.98;;;2.90;;
51006;SDS011;37034;47.886;-3.904;2023-11-21T10:19:47;18.27;;;2.28;;
51006;SDS011;37034;47.886;-3.904;2023-11-21T10:22:16;23.77;;;3.72;;
51006;SDS011;37034;47.886;-3.904;2023-11-21T10:24:42;18.95;;;3.13;;
51006;SDS011;37034;47.886;-3.904;2023-11-21T10:27:08;19.08;;;3.17;;
51006;SDS011;37034;47.886;-3.904;2023-11-21T10:29:34;18.95;;;3.15;;
51006;SDS011;37034;47.886;-3.904;2023-11-21T10:32:03;13.45;;;2.20;;
51006;SDS011;37034;47.886;-3.904;2023-11-21T10:34:30;19.23;;;2.55;;
51006;SDS011;37034;47.886;-3.904;2023-11-21T10:36:56;13.52;;;3.83;;
51006;SDS011;37034;47.886;-3.904;2023-11-21T10:44:36;13.35;;;2.78;;
51006;SDS011;37034;47.886;-3.904;2023-11-21T10:47:02;12.55;;;2.08;;
51006;SDS011;37034;47.886;-3.904;2023-11-21T10:49:28;20.30;;;3.08;;
51006;SDS011;37034;47.886;-3.904;2023-11-21T10:51:54;15.23;;;3.07;;
51006;SDS011;37034;47.886;-3.904;2023-11-21T10:54:21;12.10;;;2.45;;
51006;SDS011;37034;47.886;-3.904;2023-11-21T10:56:48;10.07;;;1.60;;
51006;SDS011;37034;47.886;-3.904;2023-11-21T10:59:16;14.15;;;1.70;;
51006;SDS011;37034;47.886;-3.904;2023-11-21T11:04:14;9.57;;;1.10;;
51006;SDS011;37034;47.886;-3.904;2023-11-21T11:06:45;12.85;;;1.65;;
51006;SDS011;37034;47.886;-3.904;2023-11-21T11:09:17;11.10;;;1.40;;
51006;SDS011;37034;47.886;-3.904;2023-11-21T11:11:43;7.43;;;1.00;;
51006;SDS011;37034;47.886;-3.904;2023-11-21T11:14:13;8.90;;;0.80;;
51006;SDS011;37034;47.886;-3.904;2023-11-21T11:16:39;6.90;;;1.10;;
51006;SDS011;37034;47.886;-3.904;2023-11-21T11:19:10;6.10;;;1.08;;
51006;SDS011;37034;47.886;-3.904;2023-11-21T11:21:43;7.55;;;1.33;;
51006;SDS011;37034;47.886;-3.904;2023-11-21T11:24:56;5.40;;;0.85;;
51006;SDS011;37034;47.886;-3.904;2023-11-21T11:35:52;4.75;;;0.80;;
51006;SDS011;37034;47.886;-3.904;2023-11-21T11:38:30;9.20;;;1.03;;
51006;SDS011;37034;47.886;-3.904;2023-11-21T11:41:01;10.52;;;1.65;;
51006;SDS011;37034;47.886;-3.904;2023-11-21T11:43:33;8.00;;;1.65;;
51006;SDS011;37034;47.886;-3.904;2023-11-21T11:46:07;12.23;;;2.63;;
51006;SDS011;37034;47.886;-3.904;2023-11-21T11:48:39;6.25;;;1.30;;
51006;SDS011;37034;47.886;-3.904;2023-11-21T11:51:06;9.95;;;1.60;;
51006;SDS011;37034;47.886;-3.904;2023-11-21T11:53:40;7.60;;;1.70;;
51006;SDS011;37034;47.886;-3.904;2023-11-21T11:58:51;8.07;;;1.50;;
51006;SDS011;37034;47.886;-3.904;2023-11-21T12:01:19;9.23;;;1.58;;
51006;SDS011;37034;47.886;-3.904;2023-11-21T12:06:33;7.07;;;1.95;;
51006;SDS011;37034;47.886;-3.904;2023-11-21T12:09:03;10.90;;;3.95;;
51006;SDS011;37034;47.886;-3.904;2023-11-21T12:11:31;9.60;;;2.60;;
51006;SDS011;37034;47.886;-3.904;2023-11-21T12:13:58;6.25;;;1.20;;
51006;SDS011;37034;47.886;-3.904;2023-11-21T12:16:25;9.10;;;1.65;;
51006;SDS011;37034;47.886;-3.904;2023-11-21T12:18:54;4.45;;;0.65;;
51006;SDS011;37034;47.886;-3.904;2023-11-21T12:21:20;7.22;;;1.02;;
51006;SDS011;37034;47.886;-3.904;2023-11-21T12:23:47;7.63;;;1.08;;
51006;SDS011;37034;47.886;-3.904;2023-11-21T12:26:13;4.93;;;1.20;;
51006;SDS011;37034;47.886;-3.904;2023-11-21T12:28:39;8.98;;;3.20;;
51006;SDS011;37034;47.886;-3.904;2023-11-21T12:31:05;10.50;;;1.70;;
51006;SDS011;37034;47.886;-3.904;2023-11-21T12:33:32;9.48;;;3.90;;
51006;SDS011;37034;47.886;-3.904;2023-11-21T12:35:58;9.57;;;3.42;;
51006;SDS011;37034;47.886;-3.904;2023-11-21T12:38:24;13.43;;;3.15;;
51006;SDS011;37034;47.886;-3.904;2023-11-21T12:40:50;10.52;;;1.60;;
51006;SDS011;37034;47.886;-3.904;2023-11-21T12:43:16;5.32;;;1.23;;
51006;SDS011;37034;47.886;-3.904;2023-11-21T12:45:43;8.38;;;1.40;;
51006;SDS011;37034;47.886;-3.904;2023-11-21T12:48:09;10.90;;;2.05;;
51006;SDS011;37034;47.886;-3.904;2023-11-21T12:50:36;7.53;;;1.80;;
51006;SDS011;37034;47.886;-3.904;2023-11-21T12:53:04;9.18;;;1.50;;
51006;SDS011;37034;47.886;-3.904;2023-11-21T12:55:37;10.02;;;1.65;;
51006;SDS011;37034;47.886;-3.904;2023-11-21T13:00:38;11.35;;;1.50;;
51006;SDS011;37034;47.886;-3.904;2023-11-21T13:03:08;5.43;;;1.52;;
51006;SDS011;37034;47.886;-3.904;2023-11-21T13:05:37;12.05;;;3.47;;
51006;SDS011;37034;47.886;-3.904;2023-11-21T13:08:05;13.27;;;3.97;;
51006;SDS011;37034;47.886;-3.904;2023-11-21T13:10:38;11.32;;;1.65;;
51006;SDS011;37034;47.886;-3.904;2023-11-21T13:13:10;17.00;;;3.40;;
51006;SDS011;37034;47.886;-3.904;2023-11-21T13:15:46;12.02;;;3.20;;
51006;SDS011;37034;47.886;-3.904;2023-11-21T13:18:16;9.07;;;2.00;;
51006;SDS011;37034;47.886;-3.904;2023-11-21T13:20:42;16.60;;;1.98;;
51006;SDS011;37034;47.886;-3.904;2023-11-21T13:25:37;16.98;;;3.58;;
51006;SDS011;37034;47.886;-3.904;2023-11-21T13:28:06;11.18;;;2.50;;
51006;SDS011;37034;47.886;-3.904;2023-11-21T13:30:32;11.90;;;2.55;;
51006;SDS011;37034;47.886;-3.904;2023-11-21T13:33:03;9.27;;;2.00;;
51006;SDS011;37034;47.886;-3.904;2023-11-21T13:35:35;10.40;;;2.28;;
51006;SDS011;37034;47.886;-3.904;2023-11-21T13:38:12;9.00;;;2.17;;
51006;SDS011;37034;47.886;-3.904;2023-11-21T13:40:39;12.18;;;2.85;;
51006;SDS011;37034;47.886;-3.904;2023-11-21T13:43:11;7.55;;;1.83;;
51006;SDS011;37034;47.886;-3.904;2023-11-21T13:45:43;12.10;;;2.15;;
51006;SDS011;37034;47.886;-3.904;2023-11-21T13:48:13;11.38;;;2.42;;
51006;SDS011;37034;47.886;-3.904;2023-11-21T13:50:39;12.35;;;2.15;;
51006;SDS011;37034;47.886;-3.904;2023-11-21T13:53:13;10.45;;;2.97;;
51006;SDS011;37034;47.886;-3.904;2023-11-21T13:55:51;13.13;;;2.13;;
51006;SDS011;37034;47.886;-3.904;2023-11-21T13:58:22;9.70;;;1.60;;
51006;SDS011;37034;47.886;-3.904;2023-11-21T14:01:00;8.30;;;1.50;;
51006;SDS011;37034;47.886;-3.904;2023-11-21T14:03:27;16.60;;;4.05;;
51006;SDS011;37034;47.886;-3.904;2023-11-21T14:06:09;10.95;;;2.17;;
51006;SDS011;37034;47.886;-3.904;2023-11-21T14:08:48;11.30;;;1.33;;
51006;SDS011;37034;47.886;-3.904;2023-11-21T14:11:30;10.20;;;1.73;;
51006;SDS011;37034;47.886;-3.904;2023-11-21T14:13:55;10.02;;;1.98;;
51006;SDS011;37034;47.886;-3.904;2023-11-21T14:16:21;14.90;;;3.40;;
51006;SDS011;37034;47.886;-3.904;2023-11-21T14:18:47;12.05;;;2.90;;
51006;SDS011;37034;47.886;-3.904;2023-11-21T14:21:29;16.63;;;3.80;;
51006;SDS011;37034;47.886;-3.904;2023-11-21T14:23:55;15.53;;;4.27;;
51006;SDS011;37034;47.886;-3.904;2023-11-21T14:26:21;8.25;;;1.45;;
51006;SDS011;37034;47.886;-3.904;2023-11-21T14:28:48;4.88;;;1.05;;
51006;SDS011;37034;47.886;-3.904;2023-11-21T14:31:14;7.67;;;1.40;;
51006;SDS011;37034;47.886;-3.904;2023-11-21T14:33:42;9.98;;;1.63;;
51006;SDS011;37034;47.886;-3.904;2023-11-21T14:36:11;8.70;;;1.45;;
51006;SDS011;37034;47.886;-3.904;2023-11-21T14:38:37;8.93;;;1.00;;
51006;SDS011;37034;47.886;-3.904;2023-11-21T14:41:04;10.00;;;1.50;;
51006;SDS011;37034;47.886;-3.904;2023-11-21T14:43:36;9.52;;;1.00;;
51006;SDS011;37034;47.886;-3.904;2023-11-21T14:46:03;9.27;;;1.50;;
51006;SDS011;37034;47.886;-3.904;2023-11-21T14:48:33;12.55;;;1.20;;
51006;SDS011;37034;47.886;-3.904;2023-11-21T14:51:10;7.20;;;1.00;;
51006;SDS011;37034;47.886;-3.904;2023-11-21T14:53:54;7.63;;;1.47;;
51006;SDS011;37034;47.886;-3.904;2023-11-21T14:56:24;12.00;;;1.90;;
51006;SDS011;37034;47.886;-3.904;2023-11-21T14:58:56;10.35;;;3.00;;
51006;SDS011;37034;47.886;-3.904;2023-11-21T15:01:25;9.95;;;2.45;;
51006;SDS011;37034;47.886;-3.904;2023-11-21T15:04:10;10.13;;;1.60;;
51006;SDS011;37034;47.886;-3.904;2023-11-21T15:06:46;13.45;;;2.92;;